createdAt,value
2019-05-28T00:01:34.605Z,12.50
2019-05-28T00:04:03.448Z,12.50
2019-05-28T00:06:32.179Z,12.50
2019-05-28T00:09:00.891Z,12.50
2019-05-28T00:11:29.598Z,12.50
2019-05-28T00:13:58.318Z,12.50
2019-05-28T00:16:27.095Z,12.50
2019-05-28T00:18:55.806Z,12.60
2019-05-28T00:21:24.557Z,12.50
2019-05-28T00:23:53.270Z,12.50
2019-05-28T00:26:21.978Z,12.50
2019-05-28T00:28:50.726Z,12.50
2019-05-28T00:31:19.672Z,12.40
2019-05-28T00:33:48.573Z,12.50
2019-05-28T00:36:19.538Z,12.50
2019-05-28T00:38:48.416Z,12.50
2019-05-28T00:41:17.396Z,12.50
2019-05-28T00:43:46.269Z,12.40
2019-05-28T00:46:15.266Z,12.40
2019-05-28T00:48:44.259Z,12.40
2019-05-28T00:51:13.338Z,12.40
2019-05-28T00:53:42.283Z,12.40
2019-05-28T00:56:11.393Z,12.40
2019-05-28T00:58:40.820Z,12.40
2019-05-28T01:01:09.650Z,12.40
2019-05-28T01:03:38.553Z,12.40
2019-05-28T01:06:07.489Z,12.40
2019-05-28T01:08:36.405Z,12.40
2019-05-28T01:11:05.204Z,12.30
2019-05-28T01:13:33.987Z,12.30
2019-05-28T01:16:02.724Z,12.30
2019-05-28T01:18:32.582Z,12.30
2019-05-28T01:21:01.321Z,12.30
2019-05-28T01:23:30.014Z,12.30
2019-05-28T01:25:58.750Z,12.30
2019-05-28T01:28:27.466Z,12.40
2019-05-28T01:31:00.648Z,12.40
2019-05-28T01:33:26.610Z,12.40
2019-05-28T01:35:55.422Z,12.30
2019-05-28T01:38:57.095Z,12.30
2019-05-28T01:41:25.989Z,12.40
2019-05-28T01:43:54.998Z,12.40
2019-05-28T01:46:24.003Z,12.40
2019-05-28T01:48:52.887Z,12.40
2019-05-28T01:51:21.862Z,12.40
2019-05-28T01:53:50.769Z,12.40
2019-05-28T01:56:19.712Z,12.40
2019-05-28T01:58:48.650Z,12.40
2019-05-28T02:01:17.528Z,12.30
2019-05-28T02:03:46.403Z,12.30
2019-05-28T02:06:15.401Z,12.30
2019-05-28T02:08:44.319Z,12.30
2019-05-28T02:11:13.204Z,12.30
2019-05-28T02:13:42.128Z,12.30
2019-05-28T02:16:11.018Z,12.30
2019-05-28T02:18:39.934Z,12.30
2019-05-28T02:21:08.638Z,12.40
2019-05-28T02:23:37.338Z,12.30
2019-05-28T02:26:06.069Z,12.40
2019-05-28T02:28:34.774Z,12.30
2019-05-28T02:31:03.571Z,12.40
2019-05-28T02:33:32.295Z,12.30
2019-05-28T02:36:01.031Z,12.30
2019-05-28T02:38:29.743Z,12.30
2019-05-28T02:40:58.527Z,12.30
2019-05-28T02:43:27.340Z,12.30
2019-05-28T02:45:56.061Z,12.30
2019-05-28T02:48:24.905Z,12.40
2019-05-28T02:51:01.773Z,12.40
2019-05-28T02:53:30.939Z,12.40
2019-05-28T02:55:59.980Z,12.30
2019-05-28T02:58:34.137Z,12.30
2019-05-28T03:01:04.196Z,12.30
2019-05-28T03:03:33.175Z,12.30
2019-05-28T03:06:01.955Z,12.30
2019-05-28T03:08:30.862Z,12.30
2019-05-28T03:11:03.643Z,12.40
2019-05-28T03:13:30.299Z,12.40
2019-05-28T03:16:02.851Z,12.30
2019-05-28T03:18:34.463Z,12.30
2019-05-28T03:21:03.972Z,12.30
2019-05-28T03:23:35.835Z,12.30
2019-05-28T03:26:04.949Z,12.30
2019-05-28T03:28:33.833Z,12.30
2019-05-28T03:31:02.681Z,12.30
2019-05-28T03:33:31.554Z,12.30
2019-05-28T03:36:01.972Z,12.30
2019-05-28T03:38:32.231Z,12.30
2019-05-28T03:41:01.009Z,12.30
2019-05-28T03:43:29.760Z,12.30
2019-05-28T03:45:58.557Z,12.20
2019-05-28T03:48:27.264Z,12.20
2019-05-28T03:50:55.971Z,12.30
2019-05-28T03:53:24.700Z,12.30
2019-05-28T03:55:53.401Z,12.30
2019-05-28T03:58:22.154Z,12.40
2019-05-28T04:00:50.977Z,12.30
2019-05-28T04:03:19.663Z,12.30
2019-05-28T04:05:48.437Z,12.40
2019-05-28T04:08:17.197Z,12.40
2019-05-28T04:10:45.918Z,12.40
2019-05-28T04:13:14.716Z,12.50
2019-05-28T04:15:46.231Z,12.50
2019-05-28T04:18:14.975Z,12.50
2019-05-28T04:20:43.679Z,12.50
2019-05-28T04:23:15.983Z,12.50
2019-05-28T04:25:45.691Z,12.50
2019-05-28T04:28:14.552Z,12.50
2019-05-28T04:30:43.955Z,12.50
2019-05-28T04:33:12.763Z,12.50
2019-05-28T04:35:41.583Z,12.60
2019-05-28T04:38:10.351Z,12.60
2019-05-28T04:40:39.461Z,12.70
2019-05-28T04:43:08.503Z,12.70
2019-05-28T04:45:37.354Z,12.70
2019-05-28T04:48:06.322Z,12.70
2019-05-28T04:50:35.486Z,12.70
2019-05-28T04:53:04.678Z,12.70
2019-05-28T04:55:33.412Z,12.70
2019-05-28T04:58:02.159Z,12.70
2019-05-28T05:00:30.861Z,12.80
2019-05-28T05:03:00.833Z,12.80
2019-05-28T05:05:29.838Z,12.80
2019-05-28T05:07:58.735Z,12.80
2019-05-28T05:10:27.457Z,12.80
2019-05-28T05:12:56.167Z,12.80
2019-05-28T05:15:24.874Z,12.80
2019-05-28T05:17:53.888Z,12.80
2019-05-28T05:20:22.651Z,12.90
2019-05-28T05:22:51.359Z,12.90
2019-05-28T05:25:20.262Z,12.90
2019-05-28T05:27:48.965Z,12.90
2019-05-28T05:30:17.888Z,12.90
2019-05-28T05:32:46.688Z,12.90
2019-05-28T05:35:15.828Z,12.90
2019-05-28T05:37:44.520Z,12.90
2019-05-28T05:40:13.493Z,12.90
2019-05-28T05:42:42.334Z,12.90
2019-05-28T05:45:11.196Z,12.90
2019-05-28T05:47:40.075Z,12.90
2019-05-28T05:50:09.449Z,12.90
2019-05-28T05:52:38.265Z,12.90
2019-05-28T05:55:08.039Z,12.90
2019-05-28T05:57:36.893Z,12.90
2019-05-28T06:00:06.501Z,12.90
2019-05-28T06:02:35.694Z,12.90
2019-05-28T06:05:04.971Z,12.90
2019-05-28T06:07:33.963Z,12.90
2019-05-28T06:10:03.407Z,12.90
2019-05-28T06:12:32.128Z,12.90
2019-05-28T06:15:03.278Z,12.90
2019-05-28T06:17:32.063Z,13.00
2019-05-28T06:20:00.767Z,13.00
2019-05-28T06:22:30.503Z,13.00
2019-05-28T06:24:59.208Z,12.90
2019-05-28T06:27:27.963Z,12.90
2019-05-28T06:29:56.755Z,12.90
2019-05-28T06:32:25.471Z,12.90
2019-05-28T06:34:54.276Z,13.00
2019-05-28T06:37:23.024Z,13.00
2019-05-28T06:39:51.728Z,13.00
2019-05-28T06:42:20.807Z,13.00
2019-05-28T06:44:49.570Z,13.10
2019-05-28T06:47:18.720Z,13.10
2019-05-28T06:49:47.424Z,13.10
2019-05-28T06:52:16.194Z,13.10
2019-05-28T06:54:44.899Z,13.10
2019-05-28T06:57:22.689Z,13.10
2019-05-28T06:59:44.044Z,13.10
2019-05-28T07:02:12.759Z,13.20
2019-05-28T07:04:41.519Z,13.30
2019-05-28T07:07:10.327Z,13.30
2019-05-28T07:09:39.223Z,13.30
2019-05-28T07:12:07.948Z,13.40
2019-05-28T07:14:36.679Z,13.50
2019-05-28T07:17:05.858Z,13.50
2019-05-28T07:19:34.662Z,13.60
2019-05-28T07:22:03.524Z,13.60
2019-05-28T07:24:32.264Z,13.60
2019-05-28T07:27:01.027Z,13.70
2019-05-28T07:29:29.803Z,13.70
2019-05-28T07:31:58.581Z,13.70
2019-05-28T07:34:30.674Z,13.80
2019-05-28T07:36:57.765Z,13.80
2019-05-28T07:39:26.555Z,13.80
2019-05-28T07:41:57.414Z,13.80
2019-05-28T07:44:26.257Z,13.80
2019-05-28T07:46:55.009Z,13.90
2019-05-28T07:49:25.064Z,13.90
2019-05-28T07:51:53.808Z,13.90
2019-05-28T07:54:22.696Z,14.00
2019-05-28T07:56:51.404Z,14.10
2019-05-28T07:59:20.334Z,14.10
2019-05-28T08:01:49.184Z,14.20
2019-05-28T08:04:17.899Z,14.20
2019-05-28T08:06:54.776Z,14.20
2019-05-28T08:09:17.345Z,14.30
2019-05-28T08:11:46.048Z,14.40
2019-05-28T08:14:14.815Z,14.30
2019-05-28T08:16:52.388Z,14.50
2019-05-28T08:19:14.019Z,14.50
2019-05-28T08:21:42.799Z,14.50
2019-05-28T08:24:11.619Z,14.60
2019-05-28T08:26:40.328Z,14.70
2019-05-28T08:29:09.068Z,14.70
2019-05-28T08:31:37.772Z,14.80
2019-05-28T08:34:06.495Z,15.00
2019-05-28T08:36:35.295Z,15.20
2019-05-28T08:39:05.779Z,15.50
2019-05-28T08:41:34.481Z,15.70
2019-05-28T08:44:03.256Z,15.70
2019-05-28T08:46:32.024Z,15.80
2019-05-28T08:49:00.985Z,15.90
2019-05-28T08:51:29.783Z,15.90
2019-05-28T08:53:58.491Z,15.90
2019-05-28T08:56:27.199Z,15.90
2019-05-28T08:58:56.364Z,16.00
2019-05-28T09:01:25.931Z,16.10
2019-05-28T09:03:54.780Z,16.10
2019-05-28T09:06:27.110Z,16.20
2019-05-28T09:08:54.120Z,16.30
2019-05-28T09:11:22.838Z,16.30
2019-05-28T09:13:51.561Z,16.40
2019-05-28T09:16:20.267Z,16.60
2019-05-28T09:18:49.009Z,16.60
2019-05-28T09:21:17.755Z,16.70
2019-05-28T09:23:46.459Z,16.80
2019-05-28T09:26:16.513Z,16.80
2019-05-28T09:28:45.240Z,16.80
2019-05-28T09:31:14.104Z,17.10
2019-05-28T09:33:42.815Z,17.10
2019-05-28T09:36:11.719Z,17.00
2019-05-28T09:38:40.438Z,16.90
2019-05-28T09:41:09.460Z,16.80
2019-05-28T09:43:38.196Z,16.70
2019-05-28T09:46:06.958Z,16.70
2019-05-28T09:48:35.760Z,16.70
2019-05-28T09:51:04.643Z,17.00
2019-05-28T09:53:34.894Z,17.20
2019-05-28T09:56:04.153Z,17.30
2019-05-28T09:58:33.932Z,17.50
2019-05-28T10:01:02.723Z,17.40
2019-05-28T10:03:31.561Z,17.70
2019-05-28T10:06:15.512Z,17.80
2019-05-28T10:08:31.728Z,18.00
2019-05-28T10:11:01.619Z,17.80
2019-05-28T10:13:39.048Z,17.70
2019-05-28T10:16:01.011Z,17.60
2019-05-28T10:18:29.744Z,17.50
2019-05-28T10:21:14.672Z,17.50
2019-05-28T10:23:29.041Z,17.60
2019-05-28T10:25:57.883Z,17.40
2019-05-28T10:28:26.571Z,17.50
2019-05-28T10:30:55.377Z,18.10
2019-05-28T10:33:24.184Z,18.00
2019-05-28T10:35:52.962Z,18.00
2019-05-28T10:38:21.876Z,18.50
2019-05-28T10:40:50.924Z,18.70
2019-05-28T10:43:19.762Z,18.70
2019-05-28T10:45:48.502Z,18.70
2019-05-28T10:48:17.207Z,19.10
2019-05-28T10:50:45.927Z,19.30
2019-05-28T10:53:14.695Z,19.30
2019-05-28T10:55:43.491Z,19.30
2019-05-28T10:58:12.207Z,18.90
2019-05-28T11:00:41.019Z,18.40
2019-05-28T11:03:09.767Z,18.20
2019-05-28T11:05:38.471Z,17.90
2019-05-28T11:08:07.259Z,17.60
2019-05-28T11:10:35.956Z,17.20
2019-05-28T11:13:04.965Z,16.90
2019-05-28T11:15:34.864Z,16.70
2019-05-28T11:18:03.735Z,16.60
2019-05-28T11:20:32.608Z,16.60
2019-05-28T11:23:01.331Z,16.70
2019-05-28T11:25:30.148Z,16.90
2019-05-28T11:27:58.937Z,17.30
2019-05-28T11:30:27.726Z,17.60
2019-05-28T11:32:57.586Z,18.10
2019-05-28T11:35:26.687Z,18.00
2019-05-28T11:39:16.284Z,18.00
2019-05-28T11:40:35.939Z,18.10
2019-05-28T11:43:04.890Z,18.20
2019-05-28T11:45:33.702Z,18.20
2019-05-28T11:48:02.520Z,18.20
2019-05-28T11:50:31.368Z,18.10
2019-05-28T11:53:00.065Z,18.00
2019-05-28T11:55:28.908Z,18.20
2019-05-28T11:57:57.707Z,18.30
2019-05-28T12:00:27.464Z,18.30
2019-05-28T12:02:56.292Z,18.50
2019-05-28T12:05:26.780Z,18.60
2019-05-28T12:07:55.700Z,18.60
2019-05-28T12:10:25.259Z,18.70
2019-05-28T12:12:55.095Z,18.80
2019-05-28T12:15:24.832Z,19.00
2019-05-28T12:17:53.562Z,19.00
2019-05-28T12:20:22.756Z,19.10
2019-05-28T12:23:09.507Z,19.00
2019-05-28T12:25:24.647Z,18.90
2019-05-28T12:27:54.499Z,18.70
2019-05-28T12:30:25.129Z,18.70
2019-05-28T12:32:53.938Z,18.80
2019-05-28T12:35:29.210Z,19.00
2019-05-28T12:37:54.646Z,19.20
2019-05-28T12:40:23.594Z,19.30
2019-05-28T12:42:52.416Z,19.10
2019-05-28T12:45:34.168Z,18.90
2019-05-28T12:48:09.646Z,18.70
2019-05-28T12:50:25.307Z,18.70
2019-05-28T12:52:54.084Z,18.70
2019-05-28T12:55:23.007Z,18.70
2019-05-28T12:57:51.728Z,18.50
2019-05-28T13:00:21.210Z,18.30
2019-05-28T13:02:49.987Z,18.30
2019-05-28T13:05:20.212Z,18.50
2019-05-28T13:08:06.598Z,18.70
2019-05-28T13:10:19.628Z,19.00
2019-05-28T13:12:48.401Z,19.00
2019-05-28T13:15:17.773Z,19.00
2019-05-28T13:17:46.575Z,19.00
2019-05-28T13:20:16.754Z,19.10
2019-05-28T13:22:46.471Z,19.10
2019-05-28T13:25:16.797Z,19.10
2019-05-28T13:27:45.587Z,19.30
2019-05-28T13:30:16.370Z,19.40
2019-05-28T13:32:46.333Z,19.60
2019-05-28T13:35:17.095Z,19.70
2019-05-28T13:37:45.807Z,19.80
2019-05-28T13:40:15.489Z,19.80
2019-05-28T13:42:44.329Z,19.60
2019-05-28T13:45:13.673Z,19.30
2019-05-28T13:47:44.485Z,19.10
2019-05-28T13:50:14.200Z,18.80
2019-05-28T13:52:42.904Z,18.70
2019-05-28T13:55:13.272Z,18.90
2019-05-28T13:57:42.223Z,19.00
2019-05-28T14:00:12.468Z,19.20
2019-05-28T14:02:45.698Z,19.50
2019-05-28T14:05:12.110Z,19.60
2019-05-28T14:07:40.890Z,19.40
2019-05-28T14:10:11.632Z,18.90
2019-05-28T14:12:40.584Z,18.80
2019-05-28T14:15:12.245Z,18.60
2019-05-28T14:17:40.984Z,18.60
2019-05-28T14:20:13.574Z,18.70
2019-05-28T14:22:45.335Z,18.70
2019-05-28T14:25:20.544Z,18.60
2019-05-28T14:27:49.536Z,18.50
2019-05-28T14:30:19.233Z,18.50
2019-05-28T14:32:47.977Z,18.60
2019-05-28T14:35:18.390Z,18.60
2019-05-28T14:37:47.906Z,18.60
2019-05-28T14:40:17.513Z,18.50
2019-05-28T14:42:46.263Z,18.50
2019-05-28T14:45:16.961Z,18.60
2019-05-28T14:47:45.961Z,18.60
2019-05-28T14:50:14.901Z,18.50
2019-05-28T14:52:43.671Z,18.50
2019-05-28T14:55:13.354Z,18.30
2019-05-28T14:57:42.177Z,18.30
2019-05-28T15:00:11.808Z,18.10
2019-05-28T15:02:40.588Z,17.90
2019-05-28T15:05:09.752Z,17.80
2019-05-28T15:07:39.609Z,17.90
2019-05-28T15:10:08.737Z,17.90
2019-05-28T15:12:37.577Z,18.00
2019-05-28T15:15:06.560Z,18.00
2019-05-28T15:17:35.325Z,17.80
2019-05-28T15:20:04.349Z,17.80
2019-05-28T15:22:33.067Z,17.70
2019-05-28T15:25:01.958Z,17.60
2019-05-28T15:27:30.796Z,17.60
2019-05-28T15:29:59.621Z,17.50
2019-05-28T15:32:28.332Z,17.50
2019-05-28T15:34:57.095Z,17.40
2019-05-28T15:37:25.827Z,17.40
2019-05-28T15:39:54.656Z,17.40
2019-05-28T15:42:23.379Z,17.40
2019-05-28T15:44:52.524Z,17.20
2019-05-28T15:47:21.425Z,17.10
2019-05-28T15:49:50.240Z,17.10
2019-05-28T15:52:19.100Z,17.10
2019-05-28T15:54:47.815Z,17.20
2019-05-28T15:57:16.571Z,17.30
2019-05-28T15:59:45.315Z,17.40
2019-05-28T16:02:14.107Z,17.40
2019-05-28T16:04:42.957Z,17.40
2019-05-28T16:07:11.825Z,17.50
2019-05-28T16:09:55.017Z,17.50
2019-05-28T16:12:11.043Z,17.50
2019-05-28T16:14:39.857Z,17.50
2019-05-28T16:17:08.551Z,17.40
2019-05-28T16:19:37.328Z,17.40
2019-05-28T16:22:06.051Z,17.30
2019-05-28T16:24:34.782Z,17.20
2019-05-28T16:27:03.606Z,17.10
2019-05-28T16:29:32.316Z,17.10
2019-05-28T16:32:01.121Z,17.10
2019-05-28T16:34:29.825Z,17.10
2019-05-28T16:36:58.547Z,17.00
2019-05-28T16:39:27.376Z,16.90
2019-05-28T16:41:56.178Z,16.90
2019-05-28T16:44:25.017Z,17.00
2019-05-28T16:47:14.747Z,17.00
2019-05-28T16:49:24.211Z,17.00
2019-05-28T16:51:53.036Z,17.00
2019-05-28T16:54:21.823Z,17.00
2019-05-28T16:56:50.514Z,16.90
2019-05-28T16:59:19.307Z,16.90
2019-05-28T17:01:48.032Z,16.90
2019-05-28T17:04:16.875Z,16.80
2019-05-28T17:06:45.617Z,16.90
2019-05-28T17:09:14.336Z,16.90
2019-05-28T17:11:43.061Z,17.00
2019-05-28T17:14:11.807Z,17.00
2019-05-28T17:16:40.641Z,17.00
2019-05-28T17:19:10.014Z,17.10
2019-05-28T17:21:38.785Z,17.20
2019-05-28T17:24:07.516Z,17.20
2019-05-28T17:26:36.235Z,17.30
2019-05-28T17:29:05.107Z,17.40
2019-05-28T17:31:36.008Z,17.20
2019-05-28T17:34:04.867Z,17.10
2019-05-28T17:36:33.634Z,16.90
2019-05-28T17:39:03.173Z,16.80
2019-05-28T17:41:33.014Z,16.80
2019-05-28T17:44:01.835Z,16.80
2019-05-28T17:46:30.631Z,16.60
2019-05-28T17:48:59.425Z,16.50
2019-05-28T17:51:28.201Z,16.40
2019-05-28T17:53:57.063Z,16.30
2019-05-28T17:56:29.321Z,16.20
2019-05-28T17:58:58.036Z,16.20
2019-05-28T18:01:27.041Z,16.20
2019-05-28T18:04:03.431Z,16.10
2019-05-28T18:06:44.778Z,16.10
2019-05-28T18:09:13.710Z,16.10
2019-05-28T18:11:42.651Z,16.00
2019-05-28T18:14:11.748Z,16.00
2019-05-28T18:16:40.714Z,15.90
2019-05-28T18:19:09.833Z,15.90
2019-05-28T18:21:38.555Z,15.80
2019-05-28T18:24:07.318Z,15.80
2019-05-28T18:26:36.007Z,15.80
2019-05-28T18:29:05.129Z,15.80
2019-05-28T18:31:33.846Z,15.80
2019-05-28T18:34:02.674Z,15.80
2019-05-28T18:36:31.387Z,15.80
2019-05-28T18:39:00.113Z,15.70
2019-05-28T18:41:28.898Z,15.70
2019-05-28T18:44:00.742Z,15.60
2019-05-28T18:46:28.064Z,15.50
2019-05-28T18:48:56.827Z,15.50
2019-05-28T18:51:30.309Z,15.40
2019-05-28T18:53:59.032Z,15.40
2019-05-28T18:56:28.080Z,15.40
2019-05-28T18:58:56.799Z,15.40
2019-05-28T19:01:25.673Z,15.40
2019-05-28T19:03:54.490Z,15.30
2019-05-28T19:06:23.291Z,15.30
2019-05-28T19:08:51.968Z,15.20
2019-05-28T19:11:34.947Z,15.20
2019-05-28T19:13:51.347Z,15.20
2019-05-28T19:16:20.057Z,15.20
2019-05-28T19:18:48.831Z,15.20
2019-05-28T19:21:17.791Z,15.20
2019-05-28T19:23:46.492Z,15.10
2019-05-28T19:26:15.242Z,15.10
2019-05-28T19:28:43.939Z,15.00
2019-05-28T19:31:12.739Z,15.00
2019-05-28T19:33:41.656Z,15.00
2019-05-28T19:36:11.694Z,15.00
2019-05-28T19:38:45.603Z,15.00
2019-05-28T19:41:12.229Z,15.00
2019-05-28T19:43:41.277Z,15.00
2019-05-28T19:46:10.197Z,14.90
2019-05-28T19:48:39.158Z,14.90
2019-05-28T19:51:08.011Z,14.80
2019-05-28T19:53:36.711Z,14.80
2019-05-28T19:56:05.595Z,14.80
2019-05-28T19:58:34.471Z,14.80
2019-05-28T20:01:03.289Z,14.70
2019-05-28T20:03:32.007Z,14.70
2019-05-28T20:06:00.736Z,14.60
2019-05-28T20:08:29.499Z,14.60
2019-05-28T20:10:58.319Z,14.50
2019-05-28T20:13:27.086Z,14.40
2019-05-28T20:15:56.970Z,14.40
2019-05-28T20:18:27.178Z,14.30
2019-05-28T20:20:56.121Z,14.30
2019-05-28T20:23:25.173Z,14.20
2019-05-28T20:25:54.502Z,14.10
2019-05-28T20:28:24.409Z,14.00
2019-05-28T20:30:53.222Z,14.00
2019-05-28T20:33:22.075Z,13.90
2019-05-28T20:35:50.996Z,13.80
2019-05-28T20:38:19.991Z,13.80
2019-05-28T20:40:48.727Z,13.70
2019-05-28T20:43:18.536Z,13.60
2019-05-28T20:45:47.226Z,13.60
2019-05-28T20:48:17.083Z,13.50
2019-05-28T20:50:45.791Z,13.50
2019-05-28T20:53:14.585Z,13.40
2019-05-28T20:55:43.391Z,13.40
2019-05-28T20:58:12.155Z,13.40
2019-05-28T21:00:40.864Z,13.40
2019-05-28T21:03:09.707Z,13.30
2019-05-28T21:05:38.441Z,13.30
2019-05-28T21:08:07.179Z,13.30
2019-05-28T21:10:36.000Z,13.30
2019-05-28T21:13:04.846Z,13.30
2019-05-28T21:15:33.555Z,13.30
2019-05-28T21:18:02.294Z,13.40
2019-05-28T21:20:31.023Z,13.40
2019-05-28T21:23:00.330Z,13.40
2019-05-28T21:25:31.473Z,13.40
2019-05-28T21:28:00.636Z,13.40
2019-05-28T21:30:29.607Z,13.40
2019-05-28T21:32:58.782Z,13.30
2019-05-28T21:35:27.762Z,13.30
2019-05-28T21:37:57.163Z,13.30
2019-05-28T21:40:25.850Z,13.30
2019-05-28T21:43:01.374Z,13.20
2019-05-28T21:45:25.198Z,13.10
2019-05-28T21:47:54.395Z,13.10
2019-05-28T21:50:23.354Z,13.00
2019-05-28T21:52:52.842Z,13.00
2019-05-28T21:55:21.690Z,13.00
2019-05-28T21:57:50.521Z,13.00
2019-05-28T22:00:37.383Z,12.90
2019-05-28T22:03:06.985Z,12.90
2019-05-28T22:05:35.803Z,12.90
2019-05-28T22:08:04.943Z,12.90
2019-05-28T22:10:33.775Z,12.80
2019-05-28T22:13:18.326Z,12.80
2019-05-28T22:15:33.124Z,12.80
2019-05-28T22:18:02.223Z,12.80
2019-05-28T22:20:31.078Z,12.80
2019-05-28T22:23:00.548Z,12.80
2019-05-28T22:25:29.547Z,12.80
2019-05-28T22:27:58.560Z,12.70
2019-05-28T22:30:27.459Z,12.80
2019-05-28T22:32:56.167Z,12.80
2019-05-28T22:35:25.071Z,12.80
2019-05-28T22:37:53.852Z,12.80
2019-05-28T22:40:22.939Z,12.90
2019-05-28T22:42:52.835Z,12.80
2019-05-28T22:45:21.623Z,12.90
2019-05-28T22:47:50.743Z,12.80
2019-05-28T22:50:23.058Z,12.90
2019-05-28T22:52:50.259Z,12.90
2019-05-28T22:55:19.052Z,12.90
2019-05-28T22:57:48.029Z,12.90
2019-05-28T23:00:17.708Z,12.80
2019-05-28T23:02:46.607Z,12.80
2019-05-28T23:05:15.910Z,12.80
2019-05-28T23:07:44.687Z,12.80
2019-05-28T23:10:13.685Z,12.80
2019-05-28T23:12:42.408Z,12.80
2019-05-28T23:15:11.375Z,12.80
2019-05-28T23:17:40.191Z,12.80
2019-05-28T23:20:10.983Z,12.80
2019-05-28T23:22:40.084Z,12.80
2019-05-28T23:25:12.122Z,12.80
2019-05-28T23:27:40.868Z,12.80
2019-05-28T23:30:23.447Z,12.80
2019-05-28T23:32:40.983Z,12.80
2019-05-28T23:35:10.770Z,12.80
2019-05-28T23:37:39.939Z,12.80
2019-05-28T23:40:09.442Z,12.80
2019-05-28T23:42:38.600Z,12.70
2019-05-28T23:45:09.939Z,12.70
2019-05-28T23:47:39.043Z,12.70
2019-05-28T23:50:08.544Z,12.60
2019-05-28T23:52:39.643Z,12.60
2019-05-28T23:55:09.785Z,12.60
2019-05-28T23:57:38.802Z,12.60
